Tuckertown, South Carolina
Current Conditions -  °F | °C
As of 10:15 AM on Sunday 21 Dec 2014 (Local Time) from KLUX Reporting Station
Overcast Overcast  
Wind Chill: 39°   Ceiling: 4400
Heat Index: 43°   Visibility: 10mi
Dew Point: 43°   Wind: 7mph
Humidity: 100%   Direction: 80°E
Pressure: 30.27"   Gusts: NA
Location:  34.6017°N, 81.4953°W
Report Text: KLUX 211515Z AUTO 08006KT 10SM OVC044 06/06 A3027 RMK AO2
Loading
Personal Weather Stations






























Interactive Weather Map New forecast layout! Learn more

10-Day Weather Forecast

Advertisements
Track Severe Weather on mobile